sensor_id;sensor_type;location;lat;lon;timestamp;pressure;altitude;pressure_sealevel;temperature;humidity
75543;BME280;64129;53.508;10.476;2023-03-24T00:00:21;99686.44;;;9.99;84.42
75543;BME280;64129;53.508;10.476;2023-03-24T00:02:50;99685.56;;;9.98;84.34
75543;BME280;64129;53.508;10.476;2023-03-24T00:05:18;99673.22;;;9.97;84.25
75543;BME280;64129;53.508;10.476;2023-03-24T00:07:46;99678.47;;;9.99;84.53
75543;BME280;64129;53.508;10.476;2023-03-24T00:10:16;99675.56;;;10.05;85.05
75543;BME280;64129;53.508;10.476;2023-03-24T00:12:44;99668.53;;;10.04;84.20
75543;BME280;64129;53.508;10.476;2023-03-24T00:15:14;99672.97;;;10.04;84.91
75543;BME280;64129;53.508;10.476;2023-03-24T00:17:41;99670.19;;;10.08;84.40
75543;BME280;64129;53.508;10.476;2023-03-24T00:20:10;99665.81;;;10.07;84.22
75543;BME280;64129;53.508;10.476;2023-03-24T00:22:46;99668.34;;;10.10;84.16
75543;BME280;64129;53.508;10.476;2023-03-24T00:25:18;99655.81;;;10.14;84.19
75543;BME280;64129;53.508;10.476;2023-03-24T00:27:45;99654.03;;;10.14;84.27
75543;BME280;64129;53.508;10.476;2023-03-24T00:30:15;99654.81;;;10.16;84.28
75543;BME280;64129;53.508;10.476;2023-03-24T00:32:42;99643.06;;;10.23;83.87
75543;BME280;64129;53.508;10.476;2023-03-24T00:35:11;99647.59;;;10.20;84.55
75543;BME280;64129;53.508;10.476;2023-03-24T00:37:38;99644.91;;;10.21;83.86
75543;BME280;64129;53.508;10.476;2023-03-24T00:40:08;99635.25;;;10.19;84.74
75543;BME280;64129;53.508;10.476;2023-03-24T00:42:39;99634.31;;;10.21;84.16
75543;BME280;64129;53.508;10.476;2023-03-24T00:45:07;99632.78;;;10.14;85.11
75543;BME280;64129;53.508;10.476;2023-03-24T00:47:35;99628.34;;;10.15;85.50
75543;BME280;64129;53.508;10.476;2023-03-24T00:50:05;99629.34;;;10.12;85.73
75543;BME280;64129;53.508;10.476;2023-03-24T00:52:32;99628.41;;;10.13;85.43
75543;BME280;64129;53.508;10.476;2023-03-24T00:55:02;99618.72;;;10.12;86.50
75543;BME280;64129;53.508;10.476;2023-03-24T00:57:31;99616.34;;;10.05;86.62
75543;BME280;64129;53.508;10.476;2023-03-24T01:00:05;99605.59;;;10.09;85.97
75543;BME280;64129;53.508;10.476;2023-03-24T01:02:45;99602.13;;;10.07;86.11
75543;BME280;64129;53.508;10.476;2023-03-24T01:05:12;99597.91;;;10.01;87.13
75543;BME280;64129;53.508;10.476;2023-03-24T01:07:40;99595.03;;;10.08;86.76
75543;BME280;64129;53.508;10.476;2023-03-24T01:10:13;99590.59;;;10.08;87.06
75543;BME280;64129;53.508;10.476;2023-03-24T01:12:40;99584.84;;;9.97;87.80
75543;BME280;64129;53.508;10.476;2023-03-24T01:15:12;99589.78;;;10.06;86.73
75543;BME280;64129;53.508;10.476;2023-03-24T01:17:40;99587.22;;;10.03;87.05
75543;BME280;64129;53.508;10.476;2023-03-24T01:20:07;99578.34;;;10.04;86.40
75543;BME280;64129;53.508;10.476;2023-03-24T01:22:38;99576.25;;;9.90;87.79
75543;BME280;64129;53.508;10.476;2023-03-24T01:25:07;99570.66;;;9.98;87.99
75543;BME280;64129;53.508;10.476;2023-03-24T01:27:35;99557.69;;;9.90;87.86
75543;BME280;64129;53.508;10.476;2023-03-24T01:30:04;99559.22;;;9.96;87.43
75543;BME280;64129;53.508;10.476;2023-03-24T01:32:31;99555.78;;;9.94;87.67
75543;BME280;64129;53.508;10.476;2023-03-24T01:34:58;99542.78;;;9.88;88.02
75543;BME280;64129;53.508;10.476;2023-03-24T01:37:24;99548.63;;;9.96;87.38
75543;BME280;64129;53.508;10.476;2023-03-24T01:39:51;99543.56;;;9.90;88.42
75543;BME280;64129;53.508;10.476;2023-03-24T01:42:20;99541.59;;;9.95;87.58
75543;BME280;64129;53.508;10.476;2023-03-24T01:44:48;99532.03;;;9.91;88.07
75543;BME280;64129;53.508;10.476;2023-03-24T01:47:16;99526.59;;;9.94;87.56
75543;BME280;64129;53.508;10.476;2023-03-24T01:49:50;99521.50;;;9.89;88.46
75543;BME280;64129;53.508;10.476;2023-03-24T01:52:23;99510.34;;;9.81;89.11
75543;BME280;64129;53.508;10.476;2023-03-24T01:54:57;99507.31;;;9.90;87.98
75543;BME280;64129;53.508;10.476;2023-03-24T01:57:32;99503.06;;;9.86;88.59
75543;BME280;64129;53.508;10.476;2023-03-24T02:00:03;99490.13;;;9.79;89.44
75543;BME280;64129;53.508;10.476;2023-03-24T02:02:48;99484.00;;;9.77;89.45
75543;BME280;64129;53.508;10.476;2023-03-24T02:05:25;99478.34;;;9.86;89.62
75543;BME280;64129;53.508;10.476;2023-03-24T02:10:39;99466.59;;;9.91;88.60
75543;BME280;64129;53.508;10.476;2023-03-24T02:13:06;99455.53;;;9.82;89.16
75543;BME280;64129;53.508;10.476;2023-03-24T02:15:38;99455.53;;;9.82;89.64
75543;BME280;64129;53.508;10.476;2023-03-24T02:21:09;99446.63;;;9.83;89.59
75543;BME280;64129;53.508;10.476;2023-03-24T02:35:02;99416.13;;;9.73;90.65
75543;BME280;64129;53.508;10.476;2023-03-24T02:40:31;99412.84;;;9.88;90.30
75543;BME280;64129;53.508;10.476;2023-03-24T02:43:07;99398.13;;;9.81;90.80
75543;BME280;64129;53.508;10.476;2023-03-24T02:46:22;99402.22;;;9.88;88.87
75543;BME280;64129;53.508;10.476;2023-03-24T02:49:01;99387.56;;;9.79;90.50
75543;BME280;64129;53.508;10.476;2023-03-24T02:51:39;99390.28;;;9.78;90.64
75543;BME280;64129;53.508;10.476;2023-03-24T02:54:37;99373.97;;;9.87;89.84
75543;BME280;64129;53.508;10.476;2023-03-24T02:57:19;99377.81;;;9.80;90.39
75543;BME280;64129;53.508;10.476;2023-03-24T03:00:14;99379.69;;;9.78;90.39
75543;BME280;64129;53.508;10.476;2023-03-24T03:03:29;99364.44;;;9.83;89.82
75543;BME280;64129;53.508;10.476;2023-03-24T03:06:02;99348.59;;;9.81;89.61
75543;BME280;64129;53.508;10.476;2023-03-24T03:08:31;99351.72;;;9.91;89.95
75543;BME280;64129;53.508;10.476;2023-03-24T03:11:01;99346.88;;;9.80;89.86
75543;BME280;64129;53.508;10.476;2023-03-24T03:13:38;99345.16;;;9.79;90.86
75543;BME280;64129;53.508;10.476;2023-03-24T03:16:13;99344.03;;;9.85;90.65
75543;BME280;64129;53.508;10.476;2023-03-24T03:18:48;99340.31;;;9.89;89.82
75543;BME280;64129;53.508;10.476;2023-03-24T03:21:20;99334.41;;;9.82;91.04
75543;BME280;64129;53.508;10.476;2023-03-24T03:23:59;99329.69;;;9.89;90.20
75543;BME280;64129;53.508;10.476;2023-03-24T03:26:28;99324.53;;;9.86;90.31
75543;BME280;64129;53.508;10.476;2023-03-24T03:29:02;99308.47;;;9.89;90.29
75543;BME280;64129;53.508;10.476;2023-03-24T03:31:35;99308.06;;;9.98;89.56
75543;BME280;64129;53.508;10.476;2023-03-24T03:34:28;99294.28;;;9.90;90.76
75543;BME280;64129;53.508;10.476;2023-03-24T03:39:57;99288.72;;;9.96;89.83
75543;BME280;64129;53.508;10.476;2023-03-24T03:42:26;99282.19;;;10.03;90.35
75543;BME280;64129;53.508;10.476;2023-03-24T03:44:53;99282.19;;;10.03;89.85
75543;BME280;64129;53.508;10.476;2023-03-24T03:47:20;99279.69;;;10.00;90.99
75543;BME280;64129;53.508;10.476;2023-03-24T03:49:49;99277.03;;;10.00;91.07
75543;BME280;64129;53.508;10.476;2023-03-24T03:52:16;99266.50;;;9.98;91.03
75543;BME280;64129;53.508;10.476;2023-03-24T03:54:44;99258.22;;;10.06;90.39
75543;BME280;64129;53.508;10.476;2023-03-24T03:57:12;99245.84;;;10.05;90.83
75543;BME280;64129;53.508;10.476;2023-03-24T04:00:19;99249.97;;;10.12;90.23
75543;BME280;64129;53.508;10.476;2023-03-24T04:06:39;99234.84;;;10.14;90.74
75543;BME280;64129;53.508;10.476;2023-03-24T04:18:12;99225.69;;;10.21;91.02
75543;BME280;64129;53.508;10.476;2023-03-24T04:21:12;99227.41;;;10.22;90.14
75543;BME280;64129;53.508;10.476;2023-03-24T04:26:53;99214.09;;;10.24;90.90
75543;BME280;64129;53.508;10.476;2023-03-24T04:32:40;99213.88;;;10.28;91.06
75543;BME280;64129;53.508;10.476;2023-03-24T04:35:22;99209.50;;;10.27;90.90
75543;BME280;64129;53.508;10.476;2023-03-24T04:38:19;99216.44;;;10.30;91.15
75543;BME280;64129;53.508;10.476;2023-03-24T04:41:08;99208.47;;;10.30;91.58
75543;BME280;64129;53.508;10.476;2023-03-24T04:43:36;99196.72;;;10.36;91.09
75543;BME280;64129;53.508;10.476;2023-03-24T04:46:07;99193.91;;;10.39;90.99
75543;BME280;64129;53.508;10.476;2023-03-24T04:48:39;99197.31;;;10.42;90.68
75543;BME280;64129;53.508;10.476;2023-03-24T04:51:16;99193.72;;;10.43;91.08
75543;BME280;64129;53.508;10.476;2023-03-24T04:53:55;99191.00;;;10.45;91.14
75543;BME280;64129;53.508;10.476;2023-03-24T04:59:21;99180.22;;;10.48;91.33
75543;BME280;64129;53.508;10.476;2023-03-24T05:01:49;99171.19;;;10.52;90.71
75543;BME280;64129;53.508;10.476;2023-03-24T05:04:28;99167.66;;;10.51;90.96
75543;BME280;64129;53.508;10.476;2023-03-24T05:07:02;99170.16;;;10.54;91.78
75543;BME280;64129;53.508;10.476;2023-03-24T05:09:29;99166.56;;;10.55;90.42
75543;BME280;64129;53.508;10.476;2023-03-24T05:12:00;99156.81;;;10.56;91.50
75543;BME280;64129;53.508;10.476;2023-03-24T05:14:29;99149.63;;;10.58;91.31
75543;BME280;64129;53.508;10.476;2023-03-24T05:16:56;99146.03;;;10.59;90.52
75543;BME280;64129;53.508;10.476;2023-03-24T05:19:23;99146.03;;;10.59;91.77
75543;BME280;64129;53.508;10.476;2023-03-24T05:21:49;99136.22;;;10.61;91.57
75543;BME280;64129;53.508;10.476;2023-03-24T05:24:16;99138.00;;;10.60;91.05
75543;BME280;64129;53.508;10.476;2023-03-24T05:26:43;99148.31;;;10.67;91.12
75543;BME280;64129;53.508;10.476;2023-03-24T05:29:15;99142.94;;;10.68;90.64
75543;BME280;64129;53.508;10.476;2023-03-24T05:31:43;99130.59;;;10.67;90.95
75543;BME280;64129;53.508;10.476;2023-03-24T05:34:20;99135.50;;;10.75;91.29
75543;BME280;64129;53.508;10.476;2023-03-24T05:37:00;99141.84;;;10.72;91.31
75543;BME280;64129;53.508;10.476;2023-03-24T05:39:27;99148.00;;;10.73;91.35
75543;BME280;64129;53.508;10.476;2023-03-24T05:42:06;99130.50;;;10.69;91.61
75543;BME280;64129;53.508;10.476;2023-03-24T05:44:33;99132.94;;;10.73;91.46
75543;BME280;64129;53.508;10.476;2023-03-24T05:47:05;99154.94;;;10.75;92.08
75543;BME280;64129;53.508;10.476;2023-03-24T05:49:32;99135.47;;;10.76;91.15
75543;BME280;64129;53.508;10.476;2023-03-24T05:51:59;99145.69;;;10.84;91.67
75543;BME280;64129;53.508;10.476;2023-03-24T05:54:26;99134.06;;;10.86;92.19
75543;BME280;64129;53.508;10.476;2023-03-24T05:57:14;99135.47;;;10.93;91.92
75543;BME280;64129;53.508;10.476;2023-03-24T06:00:08;99129.22;;;10.94;91.50
75543;BME280;64129;53.508;10.476;2023-03-24T06:03:00;99131.69;;;10.98;90.91
75543;BME280;64129;53.508;10.476;2023-03-24T06:05:33;99126.22;;;11.01;90.27
75543;BME280;64129;53.508;10.476;2023-03-24T06:08:00;99113.72;;;11.03;90.92
75543;BME280;64129;53.508;10.476;2023-03-24T06:10:29;99117.09;;;11.06;91.42
75543;BME280;64129;53.508;10.476;2023-03-24T06:12:58;99106.38;;;11.08;90.98
75543;BME280;64129;53.508;10.476;2023-03-24T06:15:24;99111.84;;;11.05;91.37
75543;BME280;64129;53.508;10.476;2023-03-24T06:17:57;99100.19;;;11.07;91.30
75543;BME280;64129;53.508;10.476;2023-03-24T06:20:31;99113.41;;;11.09;90.87
75543;BME280;64129;53.508;10.476;2023-03-24T06:23:02;99104.19;;;11.16;90.96
75543;BME280;64129;53.508;10.476;2023-03-24T06:25:36;99092.63;;;11.17;90.92
75543;BME280;64129;53.508;10.476;2023-03-24T06:28:13;99095.28;;;11.17;91.40
75543;BME280;64129;53.508;10.476;2023-03-24T06:30:43;99089.13;;;11.16;91.07
75543;BME280;64129;53.508;10.476;2023-03-24T06:33:12;99093.41;;;11.19;90.41
75543;BME280;64129;53.508;10.476;2023-03-24T06:35:40;99085.59;;;11.16;91.38
75543;BME280;64129;53.508;10.476;2023-03-24T06:38:11;99099.91;;;11.13;91.02
75543;BME280;64129;53.508;10.476;2023-03-24T06:40:38;99101.38;;;11.19;91.39
75543;BME280;64129;53.508;10.476;2023-03-24T06:43:05;99099.91;;;11.13;91.91
75543;BME280;64129;53.508;10.476;2023-03-24T06:45:35;99100.59;;;11.17;91.69
75543;BME280;64129;53.508;10.476;2023-03-24T06:48:07;99103.88;;;11.22;91.78
75543;BME280;64129;53.508;10.476;2023-03-24T06:50:33;99113.72;;;11.20;91.71
75543;BME280;64129;53.508;10.476;2023-03-24T06:53:06;99109.69;;;11.13;91.81
75543;BME280;64129;53.508;10.476;2023-03-24T06:55:34;99105.75;;;11.20;91.43
75543;BME280;64129;53.508;10.476;2023-03-24T06:58:02;99109.34;;;11.19;90.94
75543;BME280;64129;53.508;10.476;2023-03-24T07:00:46;99119.91;;;11.20;92.12
75543;BME280;64129;53.508;10.476;2023-03-24T07:03:30;99124.34;;;11.20;92.26
75543;BME280;64129;53.508;10.476;2023-03-24T07:06:24;99129.91;;;11.15;92.32
75543;BME280;64129;53.508;10.476;2023-03-24T07:08:53;99126.16;;;11.19;91.57
75543;BME280;64129;53.508;10.476;2023-03-24T07:11:23;99121.53;;;11.23;91.57
75543;BME280;64129;53.508;10.476;2023-03-24T07:13:55;99127.72;;;11.23;92.02
75543;BME280;64129;53.508;10.476;2023-03-24T07:16:22;99131.84;;;11.29;92.20
75543;BME280;64129;53.508;10.476;2023-03-24T07:18:57;99138.00;;;11.30;91.66
75543;BME280;64129;53.508;10.476;2023-03-24T07:21:25;99141.69;;;11.27;92.46
75543;BME280;64129;53.508;10.476;2023-03-24T07:23:51;99147.94;;;11.26;92.80
75543;BME280;64129;53.508;10.476;2023-03-24T07:26:23;99142.78;;;11.23;92.96
75543;BME280;64129;53.508;10.476;2023-03-24T07:28:56;99144.34;;;11.27;93.44
75543;BME280;64129;53.508;10.476;2023-03-24T07:31:36;99153.34;;;11.24;93.02
75543;BME280;64129;53.508;10.476;2023-03-24T07:34:06;99149.50;;;11.30;93.03
75543;BME280;64129;53.508;10.476;2023-03-24T07:36:35;99155.91;;;11.26;93.34
75543;BME280;64129;53.508;10.476;2023-03-24T07:39:04;99158.56;;;11.26;93.35
75543;BME280;64129;53.508;10.476;2023-03-24T07:41:33;99151.06;;;11.34;92.63
75543;BME280;64129;53.508;10.476;2023-03-24T07:44:04;99157.22;;;11.35;93.07
75543;BME280;64129;53.508;10.476;2023-03-24T07:46:35;99156.38;;;11.34;92.82
75543;BME280;64129;53.508;10.476;2023-03-24T07:49:02;99185.38;;;11.39;92.24
75543;BME280;64129;53.508;10.476;2023-03-24T07:51:34;99199.16;;;11.47;91.12
75543;BME280;64129;53.508;10.476;2023-03-24T07:54:26;99215.63;;;11.53;91.99
75543;BME280;64129;53.508;10.476;2023-03-24T07:56:54;99212.03;;;11.54;91.13
75543;BME280;64129;53.508;10.476;2023-03-24T07:59:21;99211.88;;;11.57;86.62
75543;BME280;64129;53.508;10.476;2023-03-24T08:01:49;99211.06;;;11.73;86.90
75543;BME280;64129;53.508;10.476;2023-03-24T08:04:25;99214.91;;;11.67;88.10
75543;BME280;64129;53.508;10.476;2023-03-24T08:06:58;99232.03;;;11.79;86.97
75543;BME280;64129;53.508;10.476;2023-03-24T08:09:25;99239.22;;;11.77;86.94
75543;BME280;64129;53.508;10.476;2023-03-24T08:11:52;99234.69;;;11.96;86.87
75543;BME280;64129;53.508;10.476;2023-03-24T08:14:18;99242.06;;;11.91;86.62
75543;BME280;64129;53.508;10.476;2023-03-24T08:16:45;99257.94;;;11.93;86.17
75543;BME280;64129;53.508;10.476;2023-03-24T08:19:11;99264.56;;;12.01;86.15
75543;BME280;64129;53.508;10.476;2023-03-24T08:21:38;99270.72;;;12.35;86.21
75543;BME280;64129;53.508;10.476;2023-03-24T08:24:05;99257.75;;;12.29;85.56
75543;BME280;64129;53.508;10.476;2023-03-24T08:26:32;99276.91;;;12.02;83.14
75543;BME280;64129;53.508;10.476;2023-03-24T08:29:00;99282.25;;;12.02;83.16
75543;BME280;64129;53.508;10.476;2023-03-24T08:31:32;99289.97;;;12.07;82.95
75543;BME280;64129;53.508;10.476;2023-03-24T08:33:59;99299.88;;;11.88;80.29
75543;BME280;64129;53.508;10.476;2023-03-24T08:36:25;99311.28;;;12.40;81.82
75543;BME280;64129;53.508;10.476;2023-03-24T08:38:53;99313.75;;;12.43;80.75
75543;BME280;64129;53.508;10.476;2023-03-24T08:41:22;99312.09;;;12.58;82.54
75543;BME280;64129;53.508;10.476;2023-03-24T08:43:56;99301.44;;;12.58;80.70
75543;BME280;64129;53.508;10.476;2023-03-24T08:46:22;99318.78;;;12.49;76.10
75543;BME280;64129;53.508;10.476;2023-03-24T08:48:49;99318.13;;;12.77;77.66
75543;BME280;64129;53.508;10.476;2023-03-24T08:51:16;99330.16;;;13.16;77.38
75543;BME280;64129;53.508;10.476;2023-03-24T08:53:43;99327.84;;;12.94;76.08
75543;BME280;64129;53.508;10.476;2023-03-24T08:56:10;99336.25;;;12.70;75.77
75543;BME280;64129;53.508;10.476;2023-03-24T08:58:36;99359.19;;;12.40;74.16
75543;BME280;64129;53.508;10.476;2023-03-24T09:01:03;99342.50;;;12.21;75.43
75543;BME280;64129;53.508;10.476;2023-03-24T09:03:29;99360.28;;;12.20;74.74
75543;BME280;64129;53.508;10.476;2023-03-24T09:05:57;99338.50;;;12.12;74.38
75543;BME280;64129;53.508;10.476;2023-03-24T09:08:24;99345.31;;;12.00;73.04
75543;BME280;64129;53.508;10.476;2023-03-24T09:10:51;99351.03;;;12.10;74.13
75543;BME280;64129;53.508;10.476;2023-03-24T09:13:18;99356.59;;;12.05;74.02
75543;BME280;64129;53.508;10.476;2023-03-24T09:15:50;99348.75;;;12.20;74.78
75543;BME280;64129;53.508;10.476;2023-03-24T09:18:19;99365.50;;;12.04;72.79
75543;BME280;64129;53.508;10.476;2023-03-24T09:20:46;99368.63;;;12.30;74.97
75543;BME280;64129;53.508;10.476;2023-03-24T09:23:13;99384.69;;;11.94;73.51
75543;BME280;64129;53.508;10.476;2023-03-24T09:25:40;99373.66;;;12.18;75.85
75543;BME280;64129;53.508;10.476;2023-03-24T09:28:07;99374.75;;;11.97;70.56
75543;BME280;64129;53.508;10.476;2023-03-24T09:30:34;99378.66;;;12.07;72.77
75543;BME280;64129;53.508;10.476;2023-03-24T09:33:00;99372.63;;;12.21;75.11
75543;BME280;64129;53.508;10.476;2023-03-24T09:35:27;99392.59;;;12.12;70.14
75543;BME280;64129;53.508;10.476;2023-03-24T09:37:54;99392.66;;;12.11;72.31
75543;BME280;64129;53.508;10.476;2023-03-24T09:40:24;99383.19;;;12.23;74.27
75543;BME280;64129;53.508;10.476;2023-03-24T09:43:22;99384.47;;;12.15;71.81
75543;BME280;64129;53.508;10.476;2023-03-24T09:45:53;99407.28;;;12.37;71.05
75543;BME280;64129;53.508;10.476;2023-03-24T09:51:21;99393.59;;;12.27;71.46
75543;BME280;64129;53.508;10.476;2023-03-24T09:56:37;99413.56;;;13.02;68.89
75543;BME280;64129;53.508;10.476;2023-03-24T09:59:11;99418.97;;;12.85;68.72
75543;BME280;64129;53.508;10.476;2023-03-24T10:01:40;99417.84;;;12.89;69.59
75543;BME280;64129;53.508;10.476;2023-03-24T10:04:16;99416.81;;;13.07;69.32
75543;BME280;64129;53.508;10.476;2023-03-24T10:06:44;99428.34;;;12.92;66.87
75543;BME280;64129;53.508;10.476;2023-03-24T10:09:32;99419.56;;;12.90;68.03
75543;BME280;64129;53.508;10.476;2023-03-24T10:12:35;99435.13;;;12.64;67.02
75543;BME280;64129;53.508;10.476;2023-03-24T10:15:14;99438.25;;;12.72;68.78
75543;BME280;64129;53.508;10.476;2023-03-24T10:18:14;99431.03;;;12.74;67.82
75543;BME280;64129;53.508;10.476;2023-03-24T10:20:55;99436.81;;;12.82;71.56
75543;BME280;64129;53.508;10.476;2023-03-24T10:31:59;99430.34;;;12.71;68.77
75543;BME280;64129;53.508;10.476;2023-03-24T10:34:29;99449.72;;;12.57;68.98
75543;BME280;64129;53.508;10.476;2023-03-24T10:36:59;99439.25;;;12.54;67.09
75543;BME280;64129;53.508;10.476;2023-03-24T10:39:28;99441.97;;;12.53;68.08
75543;BME280;64129;53.508;10.476;2023-03-24T10:42:03;99453.16;;;12.59;69.13
75543;BME280;64129;53.508;10.476;2023-03-24T10:44:31;99439.47;;;12.82;68.67
75543;BME280;64129;53.508;10.476;2023-03-24T10:47:02;99465.75;;;13.23;67.30
75543;BME280;64129;53.508;10.476;2023-03-24T10:49:30;99451.91;;;13.32;65.39
75543;BME280;64129;53.508;10.476;2023-03-24T10:52:01;99445.44;;;13.68;65.75
75543;BME280;64129;53.508;10.476;2023-03-24T10:54:30;99437.97;;;14.04;64.24
75543;BME280;64129;53.508;10.476;2023-03-24T11:04:36;99448.47;;;14.68;62.44
75543;BME280;64129;53.508;10.476;2023-03-24T11:07:13;99455.81;;;15.07;57.47
75543;BME280;64129;53.508;10.476;2023-03-24T11:09:57;99456.28;;;15.13;57.94
75543;BME280;64129;53.508;10.476;2023-03-24T11:12:30;99469.97;;;15.78;57.78
75543;BME280;64129;53.508;10.476;2023-03-24T11:15:18;99487.44;;;15.28;54.16
75543;BME280;64129;53.508;10.476;2023-03-24T11:17:51;99470.53;;;15.83;53.19
75543;BME280;64129;53.508;10.476;2023-03-24T11:22:58;99474.88;;;15.72;54.65
75543;BME280;64129;53.508;10.476;2023-03-24T11:25:28;99492.28;;;15.22;55.43
75543;BME280;64129;53.508;10.476;2023-03-24T11:27:58;99482.06;;;14.72;58.45
75543;BME280;64129;53.508;10.476;2023-03-24T11:30:33;99477.81;;;14.53;57.83
75543;BME280;64129;53.508;10.476;2023-03-24T11:33:01;99493.66;;;14.26;58.82
75543;BME280;64129;53.508;10.476;2023-03-24T11:35:29;99489.66;;;14.03;59.71
75543;BME280;64129;53.508;10.476;2023-03-24T11:38:05;99494.31;;;14.00;59.05
75543;BME280;64129;53.508;10.476;2023-03-24T11:40:31;99492.69;;;14.43;60.74
75543;BME280;64129;53.508;10.476;2023-03-24T11:42:59;99503.00;;;15.22;56.91
75543;BME280;64129;53.508;10.476;2023-03-24T11:45:42;99492.00;;;15.69;54.33
75543;BME280;64129;53.508;10.476;2023-03-24T11:48:24;99487.22;;;15.60;53.53
75543;BME280;64129;53.508;10.476;2023-03-24T11:50:54;99474.19;;;16.09;52.98
75543;BME280;64129;53.508;10.476;2023-03-24T11:53:43;99485.38;;;16.29;55.87
75543;BME280;64129;53.508;10.476;2023-03-24T11:56:37;99496.97;;;14.90;56.82
75543;BME280;64129;53.508;10.476;2023-03-24T12:02:02;99507.69;;;15.18;54.93
75543;BME280;64129;53.508;10.476;2023-03-24T12:05:10;99489.13;;;14.87;55.89
75543;BME280;64129;53.508;10.476;2023-03-24T12:07:52;99492.00;;;14.70;54.70
75543;BME280;64129;53.508;10.476;2023-03-24T12:13:16;99497.41;;;16.36;54.12
75543;BME280;64129;53.508;10.476;2023-03-24T12:16:02;99488.19;;;16.67;53.05
75543;BME280;64129;53.508;10.476;2023-03-24T12:26:50;99501.81;;;17.14;48.64
75543;BME280;64129;53.508;10.476;2023-03-24T12:29:41;99506.84;;;17.19;48.93
75543;BME280;64129;53.508;10.476;2023-03-24T12:32:30;99507.53;;;16.18;47.47
75543;BME280;64129;53.508;10.476;2023-03-24T12:44:05;99499.91;;;17.79;47.87
75543;BME280;64129;53.508;10.476;2023-03-24T12:49:25;99493.13;;;17.86;43.60
75543;BME280;64129;53.508;10.476;2023-03-24T12:55:02;99488.50;;;18.70;41.16
75543;BME280;64129;53.508;10.476;2023-03-24T12:57:47;99498.69;;;18.78;39.89
75543;BME280;64129;53.508;10.476;2023-03-24T13:00:17;99490.69;;;19.68;39.58
75543;BME280;64129;53.508;10.476;2023-03-24T13:02:52;99492.97;;;18.59;39.27
75543;BME280;64129;53.508;10.476;2023-03-24T13:05:25;99494.66;;;17.77;40.61
75543;BME280;64129;53.508;10.476;2023-03-24T13:07:58;99482.78;;;18.75;39.13
75543;BME280;64129;53.508;10.476;2023-03-24T13:10:29;99491.41;;;18.32;39.12
75543;BME280;64129;53.508;10.476;2023-03-24T13:13:07;99491.13;;;18.83;39.08
75543;BME280;64129;53.508;10.476;2023-03-24T13:15:46;99493.28;;;18.43;43.69
75543;BME280;64129;53.508;10.476;2023-03-24T13:18:32;99490.56;;;17.59;43.55
75543;BME280;64129;53.508;10.476;2023-03-24T13:29:49;99500.50;;;17.45;42.57
75543;BME280;64129;53.508;10.476;2023-03-24T13:37:59;99483.41;;;18.44;43.45
75543;BME280;64129;53.508;10.476;2023-03-24T13:40:28;99498.50;;;17.86;43.89
75543;BME280;64129;53.508;10.476;2023-03-24T13:43:10;99498.13;;;18.62;41.15
75543;BME280;64129;53.508;10.476;2023-03-24T13:45:44;99498.03;;;17.92;42.10
75543;BME280;64129;53.508;10.476;2023-03-24T13:48:18;99502.28;;;18.07;42.69
75543;BME280;64129;53.508;10.476;2023-03-24T13:54:03;99506.75;;;16.70;44.22
75543;BME280;64129;53.508;10.476;2023-03-24T13:56:33;99505.34;;;16.90;44.65
75543;BME280;64129;53.508;10.476;2023-03-24T14:01:36;99504.59;;;17.13;43.15
75543;BME280;64129;53.508;10.476;2023-03-24T14:06:55;99509.66;;;18.16;40.60
75543;BME280;64129;53.508;10.476;2023-03-24T14:09:28;99479.91;;;19.12;40.73
75543;BME280;64129;53.508;10.476;2023-03-24T14:14:23;99505.63;;;19.83;40.32
75543;BME280;64129;53.508;10.476;2023-03-24T14:17:11;99490.69;;;19.12;38.57
75543;BME280;64129;53.508;10.476;2023-03-24T14:19:44;99494.97;;;19.70;37.36
75543;BME280;64129;53.508;10.476;2023-03-24T14:22:38;99493.88;;;19.61;38.86
75543;BME280;64129;53.508;10.476;2023-03-24T14:27:45;99489.41;;;19.05;35.31
75543;BME280;64129;53.508;10.476;2023-03-24T14:30:22;99493.00;;;19.27;38.11
75543;BME280;64129;53.508;10.476;2023-03-24T14:32:57;99481.84;;;19.77;36.89
75543;BME280;64129;53.508;10.476;2023-03-24T14:38:01;99490.44;;;19.59;35.21
75543;BME280;64129;53.508;10.476;2023-03-24T14:54:12;99514.41;;;19.29;32.13
75543;BME280;64129;53.508;10.476;2023-03-24T14:56:41;99508.13;;;19.06;32.48
75543;BME280;64129;53.508;10.476;2023-03-24T14:59:26;99495.34;;;19.54;34.37
75543;BME280;64129;53.508;10.476;2023-03-24T15:02:02;99502.00;;;18.93;33.20
75543;BME280;64129;53.508;10.476;2023-03-24T15:04:31;99487.41;;;20.18;34.85
75543;BME280;64129;53.508;10.476;2023-03-24T15:07:02;99492.16;;;19.83;32.81
75543;BME280;64129;53.508;10.476;2023-03-24T15:09:29;99490.19;;;19.85;33.94
75543;BME280;64129;53.508;10.476;2023-03-24T15:11:58;99504.09;;;19.00;34.58
75543;BME280;64129;53.508;10.476;2023-03-24T15:14:25;99505.97;;;19.11;34.32
75543;BME280;64129;53.508;10.476;2023-03-24T15:17:17;99516.69;;;18.89;34.69
75543;BME280;64129;53.508;10.476;2023-03-24T15:19:49;99502.56;;;18.39;33.42
75543;BME280;64129;53.508;10.476;2023-03-24T15:22:17;99503.66;;;18.13;33.96
75543;BME280;64129;53.508;10.476;2023-03-24T15:24:49;99506.16;;;18.03;35.90
75543;BME280;64129;53.508;10.476;2023-03-24T15:27:24;99508.91;;;19.08;35.55
75543;BME280;64129;53.508;10.476;2023-03-24T15:29:56;99503.81;;;18.22;36.68
75543;BME280;64129;53.508;10.476;2023-03-24T15:32:25;99514.25;;;16.77;36.21
75543;BME280;64129;53.508;10.476;2023-03-24T15:34:55;99504.94;;;17.08;39.62
75543;BME280;64129;53.508;10.476;2023-03-24T15:37:42;99510.09;;;16.46;38.48
75543;BME280;64129;53.508;10.476;2023-03-24T15:42:57;99512.63;;;16.35;38.80
75543;BME280;64129;53.508;10.476;2023-03-24T15:45:31;99510.34;;;16.29;40.10
75543;BME280;64129;53.508;10.476;2023-03-24T15:48:05;99507.38;;;16.07;38.89